sensor_id;sensor_type;location;lat;lon;timestamp;noise_LAeq;noise_LA_min;noise_LA_max;noise_LA01;noise_LA95
60503;Laerm;51448;51.660;5.824;2023-05-10T00:00:19;44.00;28.29;56.64;;
60503;Laerm;51448;51.660;5.824;2023-05-10T00:02:48;43.93;28.53;56.65;;
60503;Laerm;51448;51.660;5.824;2023-05-10T00:05:15;44.10;28.36;61.75;;
60503;Laerm;51448;51.660;5.824;2023-05-10T00:07:43;44.77;28.25;56.89;;
60503;Laerm;51448;51.660;5.824;2023-05-10T00:10:12;44.60;28.47;56.87;;
60503;Laerm;51448;51.660;5.824;2023-05-10T00:12:40;44.03;28.26;56.54;;
60503;Laerm;51448;51.660;5.824;2023-05-10T00:15:09;44.14;28.25;57.03;;
60503;Laerm;51448;51.660;5.824;2023-05-10T00:17:36;45.12;28.45;56.82;;
60503;Laerm;51448;51.660;5.824;2023-05-10T00:20:20;45.01;28.37;57.00;;
60503;Laerm;51448;51.660;5.824;2023-05-10T00:23:02;44.59;28.34;57.07;;
60503;Laerm;51448;51.660;5.824;2023-05-10T00:25:30;45.42;28.12;56.90;;
60503;Laerm;51448;51.660;5.824;2023-05-10T00:27:58;44.44;28.22;56.66;;
60503;Laerm;51448;51.660;5.824;2023-05-10T00:30:25;43.92;28.43;56.45;;
60503;Laerm;51448;51.660;5.824;2023-05-10T00:32:53;45.03;27.98;59.82;;
60503;Laerm;51448;51.660;5.824;2023-05-10T00:35:21;44.55;28.34;59.73;;
60503;Laerm;51448;51.660;5.824;2023-05-10T00:37:49;44.12;28.05;56.46;;
60503;Laerm;51448;51.660;5.824;2023-05-10T00:40:16;45.42;28.33;56.93;;
60503;Laerm;51448;51.660;5.824;2023-05-10T00:42:48;49.66;28.61;72.61;;
60503;Laerm;51448;51.660;5.824;2023-05-10T00:45:16;45.44;28.35;57.17;;
60503;Laerm;51448;51.660;5.824;2023-05-10T00:47:44;44.28;28.23;56.84;;
60503;Laerm;51448;51.660;5.824;2023-05-10T00:50:12;48.35;28.45;74.77;;
60503;Laerm;51448;51.660;5.824;2023-05-10T00:52:42;46.54;28.31;59.99;;
60503;Laerm;51448;51.660;5.824;2023-05-10T00:55:11;44.23;28.05;57.16;;
60503;Laerm;51448;51.660;5.824;2023-05-10T00:57:39;45.62;29.27;57.19;;
60503;Laerm;51448;51.660;5.824;2023-05-10T01:00:08;45.12;27.91;57.19;;
60503;Laerm;51448;51.660;5.824;2023-05-10T01:02:35;45.04;28.31;56.99;;
60503;Laerm;51448;51.660;5.824;2023-05-10T01:05:04;44.49;27.82;56.90;;
60503;Laerm;51448;51.660;5.824;2023-05-10T01:07:32;43.83;28.24;56.71;;
60503;Laerm;51448;51.660;5.824;2023-05-10T01:10:00;45.25;28.19;56.97;;
60503;Laerm;51448;51.660;5.824;2023-05-10T01:12:28;45.92;28.32;57.43;;
60503;Laerm;51448;51.660;5.824;2023-05-10T01:14:55;44.38;28.69;57.02;;
60503;Laerm;51448;51.660;5.824;2023-05-10T01:17:25;46.19;28.54;56.91;;
60503;Laerm;51448;51.660;5.824;2023-05-10T01:19:53;44.54;28.46;56.54;;
60503;Laerm;51448;51.660;5.824;2023-05-10T01:29:03;43.73;28.09;57.38;;
60503;Laerm;51448;51.660;5.824;2023-05-10T01:34:53;43.82;28.31;57.37;;
60503;Laerm;51448;51.660;5.824;2023-05-10T01:37:33;43.91;28.34;56.93;;
60503;Laerm;51448;51.660;5.824;2023-05-10T01:40:17;44.60;28.79;56.92;;
60503;Laerm;51448;51.660;5.824;2023-05-10T01:42:54;45.20;28.55;57.04;;
60503;Laerm;51448;51.660;5.824;2023-05-10T01:45:35;45.04;28.26;60.92;;
60503;Laerm;51448;51.660;5.824;2023-05-10T01:48:14;44.01;28.09;56.74;;
60503;Laerm;51448;51.660;5.824;2023-05-10T01:50:45;46.01;28.30;59.68;;
60503;Laerm;51448;51.660;5.824;2023-05-10T01:53:18;44.17;28.39;57.10;;
60503;Laerm;51448;51.660;5.824;2023-05-10T01:55:51;43.95;28.17;56.63;;
60503;Laerm;51448;51.660;5.824;2023-05-10T01:58:31;44.96;28.11;58.79;;
60503;Laerm;51448;51.660;5.824;2023-05-10T02:01:03;45.39;28.43;57.07;;
60503;Laerm;51448;51.660;5.824;2023-05-10T02:03:35;44.47;28.40;56.82;;
60503;Laerm;51448;51.660;5.824;2023-05-10T02:06:05;44.79;28.29;57.06;;
60503;Laerm;51448;51.660;5.824;2023-05-10T02:08:40;44.61;28.14;57.10;;
60503;Laerm;51448;51.660;5.824;2023-05-10T02:11:12;44.21;28.02;56.69;;
60503;Laerm;51448;51.660;5.824;2023-05-10T02:13:41;44.72;28.14;57.00;;
60503;Laerm;51448;51.660;5.824;2023-05-10T02:16:12;46.32;28.04;57.63;;
60503;Laerm;51448;51.660;5.824;2023-05-10T02:18:41;44.84;28.41;56.62;;
60503;Laerm;51448;51.660;5.824;2023-05-10T02:21:10;44.66;28.41;57.07;;
60503;Laerm;51448;51.660;5.824;2023-05-10T02:23:40;45.07;28.31;56.81;;
60503;Laerm;51448;51.660;5.824;2023-05-10T02:26:11;45.86;28.30;56.91;;
60503;Laerm;51448;51.660;5.824;2023-05-10T02:28:42;54.37;28.38;74.45;;
60503;Laerm;51448;51.660;5.824;2023-05-10T02:31:11;45.09;28.13;62.94;;
60503;Laerm;51448;51.660;5.824;2023-05-10T02:33:40;44.69;28.68;56.95;;
60503;Laerm;51448;51.660;5.824;2023-05-10T02:36:10;44.59;28.57;61.96;;
60503;Laerm;51448;51.660;5.824;2023-05-10T02:38:40;44.59;28.45;57.45;;
60503;Laerm;51448;51.660;5.824;2023-05-10T02:41:09;46.29;29.41;62.81;;
60503;Laerm;51448;51.660;5.824;2023-05-10T02:43:40;46.31;29.27;62.89;;
60503;Laerm;51448;51.660;5.824;2023-05-10T02:46:09;54.85;29.71;77.02;;
60503;Laerm;51448;51.660;5.824;2023-05-10T02:48:37;46.35;29.62;66.70;;
60503;Laerm;51448;51.660;5.824;2023-05-10T02:51:07;45.39;29.58;56.93;;
60503;Laerm;51448;51.660;5.824;2023-05-10T02:53:40;45.38;28.77;60.35;;
60503;Laerm;51448;51.660;5.824;2023-05-10T02:56:23;46.08;29.66;60.05;;
60503;Laerm;51448;51.660;5.824;2023-05-10T02:58:52;35.45;29.41;54.30;;
60503;Laerm;51448;51.660;5.824;2023-05-10T03:01:20;43.10;29.35;55.85;;
60503;Laerm;51448;51.660;5.824;2023-05-10T03:03:47;45.33;29.98;56.77;;
60503;Laerm;51448;51.660;5.824;2023-05-10T03:06:15;46.60;31.87;58.81;;
60503;Laerm;51448;51.660;5.824;2023-05-10T03:08:44;46.86;32.36;59.18;;
60503;Laerm;51448;51.660;5.824;2023-05-10T03:11:28;47.39;32.55;62.02;;
60503;Laerm;51448;51.660;5.824;2023-05-10T03:17:25;48.79;33.10;67.10;;
60503;Laerm;51448;51.660;5.824;2023-05-10T03:20:03;53.58;32.99;70.33;;
60503;Laerm;51448;51.660;5.824;2023-05-10T03:22:39;53.57;33.02;70.67;;
60503;Laerm;51448;51.660;5.824;2023-05-10T03:25:10;56.04;33.65;72.23;;
60503;Laerm;51448;51.660;5.824;2023-05-10T03:27:43;55.91;33.76;73.42;;
60503;Laerm;51448;51.660;5.824;2023-05-10T03:30:13;49.73;34.24;68.47;;
60503;Laerm;51448;51.660;5.824;2023-05-10T03:32:42;50.30;34.87;65.74;;
60503;Laerm;51448;51.660;5.824;2023-05-10T03:35:11;47.58;35.05;57.03;;
60503;Laerm;51448;51.660;5.824;2023-05-10T03:37:40;46.81;34.59;59.08;;
60503;Laerm;51448;51.660;5.824;2023-05-10T03:40:09;50.94;34.01;64.64;;
60503;Laerm;51448;51.660;5.824;2023-05-10T03:42:40;50.21;32.85;63.94;;
60503;Laerm;51448;51.660;5.824;2023-05-10T03:45:08;51.38;34.65;67.76;;
60503;Laerm;51448;51.660;5.824;2023-05-10T03:47:37;50.30;33.83;64.59;;
60503;Laerm;51448;51.660;5.824;2023-05-10T03:50:05;51.98;34.25;64.74;;
60503;Laerm;51448;51.660;5.824;2023-05-10T03:52:34;50.09;33.04;61.81;;
60503;Laerm;51448;51.660;5.824;2023-05-10T03:55:02;48.95;34.07;59.62;;
60503;Laerm;51448;51.660;5.824;2023-05-10T03:57:31;54.66;33.41;73.01;;
60503;Laerm;51448;51.660;5.824;2023-05-10T04:00:00;52.05;34.23;66.75;;
60503;Laerm;51448;51.660;5.824;2023-05-10T04:02:27;49.18;34.05;63.78;;
60503;Laerm;51448;51.660;5.824;2023-05-10T04:04:56;51.73;33.79;67.79;;
60503;Laerm;51448;51.660;5.824;2023-05-10T04:07:23;57.20;35.38;72.16;;
60503;Laerm;51448;51.660;5.824;2023-05-10T04:09:51;58.36;35.15;79.83;;
60503;Laerm;51448;51.660;5.824;2023-05-10T04:12:19;61.84;37.85;76.08;;
60503;Laerm;51448;51.660;5.824;2023-05-10T04:14:47;61.63;37.04;76.49;;
60503;Laerm;51448;51.660;5.824;2023-05-10T04:17:14;59.97;34.62;73.16;;
60503;Laerm;51448;51.660;5.824;2023-05-10T04:19:42;58.12;33.37;72.80;;
60503;Laerm;51448;51.660;5.824;2023-05-10T04:22:10;58.18;34.14;77.33;;
60503;Laerm;51448;51.660;5.824;2023-05-10T04:24:38;56.41;35.49;71.30;;
60503;Laerm;51448;51.660;5.824;2023-05-10T04:27:05;55.84;34.96;73.37;;
60503;Laerm;51448;51.660;5.824;2023-05-10T04:29:33;56.51;33.30;74.81;;
60503;Laerm;51448;51.660;5.824;2023-05-10T04:32:00;58.34;34.15;71.16;;
60503;Laerm;51448;51.660;5.824;2023-05-10T04:34:28;59.45;37.32;71.94;;
60503;Laerm;51448;51.660;5.824;2023-05-10T04:36:55;49.92;36.31;66.54;;
60503;Laerm;51448;51.660;5.824;2023-05-10T04:39:23;55.22;37.08;68.05;;
60503;Laerm;51448;51.660;5.824;2023-05-10T04:41:51;53.18;35.33;68.20;;
60503;Laerm;51448;51.660;5.824;2023-05-10T04:44:18;49.95;36.68;66.98;;
60503;Laerm;51448;51.660;5.824;2023-05-10T04:46:46;50.79;34.24;74.65;;
60503;Laerm;51448;51.660;5.824;2023-05-10T04:49:13;51.42;36.42;64.32;;
60503;Laerm;51448;51.660;5.824;2023-05-10T04:51:41;51.83;35.04;75.46;;
60503;Laerm;51448;51.660;5.824;2023-05-10T04:54:09;51.77;35.86;72.40;;
60503;Laerm;51448;51.660;5.824;2023-05-10T04:56:37;50.13;35.82;59.99;;
60503;Laerm;51448;51.660;5.824;2023-05-10T04:59:05;54.37;37.44;70.88;;
60503;Laerm;51448;51.660;5.824;2023-05-10T05:01:33;55.67;37.18;78.54;;
60503;Laerm;51448;51.660;5.824;2023-05-10T05:04:00;53.67;36.52;69.95;;
60503;Laerm;51448;51.660;5.824;2023-05-10T05:06:28;56.27;35.64;82.75;;
60503;Laerm;51448;51.660;5.824;2023-05-10T05:08:56;50.68;35.51;66.64;;
60503;Laerm;51448;51.660;5.824;2023-05-10T05:11:30;54.13;36.03;74.95;;
60503;Laerm;51448;51.660;5.824;2023-05-10T05:13:58;54.22;37.28;70.04;;
60503;Laerm;51448;51.660;5.824;2023-05-10T05:16:26;52.38;36.31;68.41;;
60503;Laerm;51448;51.660;5.824;2023-05-10T05:18:54;50.87;35.68;67.63;;
60503;Laerm;51448;51.660;5.824;2023-05-10T05:21:22;54.63;38.78;76.67;;
60503;Laerm;51448;51.660;5.824;2023-05-10T05:23:49;53.26;37.42;68.23;;
60503;Laerm;51448;51.660;5.824;2023-05-10T05:26:17;52.94;36.94;68.94;;
60503;Laerm;51448;51.660;5.824;2023-05-10T05:28:45;51.61;34.71;65.70;;
60503;Laerm;51448;51.660;5.824;2023-05-10T05:31:12;51.59;37.01;64.24;;
60503;Laerm;51448;51.660;5.824;2023-05-10T05:33:41;51.85;36.88;70.78;;
60503;Laerm;51448;51.660;5.824;2023-05-10T05:36:09;49.15;36.86;59.13;;
60503;Laerm;51448;51.660;5.824;2023-05-10T05:38:36;56.39;40.13;73.95;;
60503;Laerm;51448;51.660;5.824;2023-05-10T05:41:04;52.56;40.03;65.74;;
60503;Laerm;51448;51.660;5.824;2023-05-10T05:43:32;54.54;38.71;70.52;;
60503;Laerm;51448;51.660;5.824;2023-05-10T05:46:01;53.87;40.05;73.49;;
60503;Laerm;51448;51.660;5.824;2023-05-10T05:48:30;51.99;41.38;65.96;;
60503;Laerm;51448;51.660;5.824;2023-05-10T05:50:58;51.69;36.97;64.77;;
60503;Laerm;51448;51.660;5.824;2023-05-10T05:53:25;52.33;38.66;66.85;;
60503;Laerm;51448;51.660;5.824;2023-05-10T05:55:55;51.08;38.98;67.52;;
60503;Laerm;51448;51.660;5.824;2023-05-10T05:58:24;51.80;37.77;64.80;;
60503;Laerm;51448;51.660;5.824;2023-05-10T06:00:52;51.06;36.76;64.81;;
60503;Laerm;51448;51.660;5.824;2023-05-10T06:03:24;52.80;38.48;65.62;;
60503;Laerm;51448;51.660;5.824;2023-05-10T06:05:52;55.49;38.90;73.06;;
60503;Laerm;51448;51.660;5.824;2023-05-10T06:08:20;49.04;37.00;59.87;;
60503;Laerm;51448;51.660;5.824;2023-05-10T06:10:48;51.37;39.35;61.87;;
60503;Laerm;51448;51.660;5.824;2023-05-10T06:13:15;52.44;40.85;68.81;;
60503;Laerm;51448;51.660;5.824;2023-05-10T06:15:50;50.98;40.12;66.66;;
60503;Laerm;51448;51.660;5.824;2023-05-10T06:18:18;51.54;39.51;65.05;;
60503;Laerm;51448;51.660;5.824;2023-05-10T06:20:45;51.00;39.79;64.22;;
60503;Laerm;51448;51.660;5.824;2023-05-10T06:23:13;50.01;37.83;63.63;;
60503;Laerm;51448;51.660;5.824;2023-05-10T06:25:41;55.86;38.15;78.96;;
60503;Laerm;51448;51.660;5.824;2023-05-10T06:28:09;50.50;38.89;71.67;;
60503;Laerm;51448;51.660;5.824;2023-05-10T06:30:36;55.38;39.24;75.65;;
60503;Laerm;51448;51.660;5.824;2023-05-10T06:33:04;50.93;38.19;66.87;;
60503;Laerm;51448;51.660;5.824;2023-05-10T06:35:32;61.41;38.04;76.43;;
60503;Laerm;51448;51.660;5.824;2023-05-10T06:38:00;60.47;38.64;77.76;;
60503;Laerm;51448;51.660;5.824;2023-05-10T06:40:28;48.50;38.64;66.44;;
60503;Laerm;51448;51.660;5.824;2023-05-10T06:43:03;50.12;38.83;69.25;;
60503;Laerm;51448;51.660;5.824;2023-05-10T06:45:32;49.25;39.52;60.95;;
60503;Laerm;51448;51.660;5.824;2023-05-10T06:47:59;49.21;38.98;62.68;;
60503;Laerm;51448;51.660;5.824;2023-05-10T06:50:27;52.55;37.79;69.32;;
60503;Laerm;51448;51.660;5.824;2023-05-10T06:52:54;49.90;39.22;57.93;;
60503;Laerm;51448;51.660;5.824;2023-05-10T06:55:28;53.72;39.87;72.48;;
60503;Laerm;51448;51.660;5.824;2023-05-10T06:57:57;53.73;40.16;69.81;;
60503;Laerm;51448;51.660;5.824;2023-05-10T07:00:25;51.45;41.24;63.62;;
60503;Laerm;51448;51.660;5.824;2023-05-10T07:02:53;51.01;39.87;62.63;;
60503;Laerm;51448;51.660;5.824;2023-05-10T07:05:21;51.21;39.20;67.98;;
60503;Laerm;51448;51.660;5.824;2023-05-10T07:07:49;50.04;39.82;66.49;;
60503;Laerm;51448;51.660;5.824;2023-05-10T07:10:17;55.21;39.69;75.10;;
60503;Laerm;51448;51.660;5.824;2023-05-10T07:12:45;51.43;40.46;69.75;;
60503;Laerm;51448;51.660;5.824;2023-05-10T07:15:12;55.17;39.96;71.83;;
60503;Laerm;51448;51.660;5.824;2023-05-10T07:17:40;51.20;39.71;68.91;;
60503;Laerm;51448;51.660;5.824;2023-05-10T07:20:11;51.74;40.80;66.53;;
60503;Laerm;51448;51.660;5.824;2023-05-10T07:22:39;50.94;42.00;65.09;;
60503;Laerm;51448;51.660;5.824;2023-05-10T07:25:07;51.17;38.35;68.74;;
60503;Laerm;51448;51.660;5.824;2023-05-10T07:27:35;56.87;42.01;74.49;;
60503;Laerm;51448;51.660;5.824;2023-05-10T07:30:02;53.82;37.45;74.27;;
60503;Laerm;51448;51.660;5.824;2023-05-10T07:32:30;49.45;35.28;66.08;;
60503;Laerm;51448;51.660;5.824;2023-05-10T07:34:59;49.08;34.92;64.98;;
60503;Laerm;51448;51.660;5.824;2023-05-10T07:37:26;51.17;35.38;72.27;;
60503;Laerm;51448;51.660;5.824;2023-05-10T07:39:54;52.00;35.87;69.17;;
60503;Laerm;51448;51.660;5.824;2023-05-10T07:42:21;51.52;34.76;65.69;;
60503;Laerm;51448;51.660;5.824;2023-05-10T07:44:49;51.09;34.28;63.14;;
60503;Laerm;51448;51.660;5.824;2023-05-10T07:47:16;48.14;35.09;57.26;;
60503;Laerm;51448;51.660;5.824;2023-05-10T07:49:44;48.63;35.10;57.21;;
60503;Laerm;51448;51.660;5.824;2023-05-10T07:52:12;53.30;34.49;64.83;;
60503;Laerm;51448;51.660;5.824;2023-05-10T07:54:39;50.51;37.19;59.63;;
60503;Laerm;51448;51.660;5.824;2023-05-10T07:57:07;51.52;35.99;73.76;;
60503;Laerm;51448;51.660;5.824;2023-05-10T07:59:34;51.59;36.28;66.96;;
60503;Laerm;51448;51.660;5.824;2023-05-10T08:02:02;54.61;39.30;65.38;;
60503;Laerm;51448;51.660;5.824;2023-05-10T08:04:29;60.90;36.21;79.41;;
60503;Laerm;51448;51.660;5.824;2023-05-10T08:06:59;61.14;37.16;84.37;;
60503;Laerm;51448;51.660;5.824;2023-05-10T08:09:30;56.20;34.25;71.93;;
60503;Laerm;51448;51.660;5.824;2023-05-10T08:12:11;57.03;39.48;74.82;;
60503;Laerm;51448;51.660;5.824;2023-05-10T08:14:42;52.78;40.24;63.56;;
60503;Laerm;51448;51.660;5.824;2023-05-10T08:17:21;49.17;36.25;63.61;;
60503;Laerm;51448;51.660;5.824;2023-05-10T08:19:51;47.49;36.36;61.72;;
60503;Laerm;51448;51.660;5.824;2023-05-10T08:22:18;48.59;37.61;57.50;;
60503;Laerm;51448;51.660;5.824;2023-05-10T08:24:46;53.14;36.51;70.75;;
60503;Laerm;51448;51.660;5.824;2023-05-10T08:27:17;52.07;37.61;67.92;;
60503;Laerm;51448;51.660;5.824;2023-05-10T08:29:44;51.01;37.53;65.04;;
60503;Laerm;51448;51.660;5.824;2023-05-10T08:32:17;57.67;37.51;75.12;;
60503;Laerm;51448;51.660;5.824;2023-05-10T08:34:47;58.43;37.05;70.04;;
60503;Laerm;51448;51.660;5.824;2023-05-10T08:37:44;52.52;36.51;71.52;;
60503;Laerm;51448;51.660;5.824;2023-05-10T08:40:14;52.87;35.86;69.04;;
60503;Laerm;51448;51.660;5.824;2023-05-10T08:42:53;60.11;36.46;86.47;;
60503;Laerm;51448;51.660;5.824;2023-05-10T08:45:24;60.81;35.66;77.34;;
60503;Laerm;51448;51.660;5.824;2023-05-10T08:47:52;50.66;39.40;67.26;;
60503;Laerm;51448;51.660;5.824;2023-05-10T08:50:21;51.39;40.22;61.16;;
60503;Laerm;51448;51.660;5.824;2023-05-10T08:52:54;50.73;40.62;62.40;;
60503;Laerm;51448;51.660;5.824;2023-05-10T08:55:24;48.54;38.31;62.71;;
60503;Laerm;51448;51.660;5.824;2023-05-10T08:57:53;49.91;36.61;65.10;;
60503;Laerm;51448;51.660;5.824;2023-05-10T09:00:21;50.65;38.38;67.73;;
60503;Laerm;51448;51.660;5.824;2023-05-10T09:02:50;53.60;38.51;75.19;;
60503;Laerm;51448;51.660;5.824;2023-05-10T09:05:20;50.58;36.97;69.46;;
60503;Laerm;51448;51.660;5.824;2023-05-10T09:07:47;62.78;38.92;83.66;;
60503;Laerm;51448;51.660;5.824;2023-05-10T09:10:16;56.25;38.72;81.75;;
60503;Laerm;51448;51.660;5.824;2023-05-10T09:12:47;52.22;38.10;74.90;;
60503;Laerm;51448;51.660;5.824;2023-05-10T09:15:16;50.66;39.32;76.58;;
60503;Laerm;51448;51.660;5.824;2023-05-10T09:17:49;48.08;38.40;68.01;;
60503;Laerm;51448;51.660;5.824;2023-05-10T09:20:17;54.10;39.15;70.52;;
60503;Laerm;51448;51.660;5.824;2023-05-10T09:22:45;55.47;35.16;71.08;;
60503;Laerm;51448;51.660;5.824;2023-05-10T09:25:16;54.18;37.81;73.92;;
60503;Laerm;51448;51.660;5.824;2023-05-10T09:27:47;55.06;47.94;68.60;;
60503;Laerm;51448;51.660;5.824;2023-05-10T09:30:28;55.38;39.44;66.33;;
60503;Laerm;51448;51.660;5.824;2023-05-10T09:32:58;56.21;48.30;69.44;;
60503;Laerm;51448;51.660;5.824;2023-05-10T09:35:31;56.34;42.73;71.08;;
60503;Laerm;51448;51.660;5.824;2023-05-10T09:38:03;52.51;41.25;71.09;;
60503;Laerm;51448;51.660;5.824;2023-05-10T09:40:32;57.58;42.29;87.63;;
60503;Laerm;51448;51.660;5.824;2023-05-10T09:43:09;50.93;40.66;70.06;;
60503;Laerm;51448;51.660;5.824;2023-05-10T09:45:38;49.26;39.24;62.47;;
60503;Laerm;51448;51.660;5.824;2023-05-10T09:48:05;51.73;40.13;69.71;;
60503;Laerm;51448;51.660;5.824;2023-05-10T09:50:34;52.79;39.79;71.52;;
60503;Laerm;51448;51.660;5.824;2023-05-10T09:53:03;52.60;40.78;72.42;;
60503;Laerm;51448;51.660;5.824;2023-05-10T09:55:45;51.40;40.97;72.02;;
60503;Laerm;51448;51.660;5.824;2023-05-10T09:58:13;49.93;38.97;67.29;;
60503;Laerm;51448;51.660;5.824;2023-05-10T10:00:44;50.69;40.02;66.83;;
60503;Laerm;51448;51.660;5.824;2023-05-10T10:03:19;49.62;39.93;63.42;;
60503;Laerm;51448;51.660;5.824;2023-05-10T10:05:48;53.28;39.63;67.82;;
60503;Laerm;51448;51.660;5.824;2023-05-10T10:08:17;54.71;40.22;67.93;;
60503;Laerm;51448;51.660;5.824;2023-05-10T10:10:46;58.02;39.24;70.98;;
60503;Laerm;51448;51.660;5.824;2023-05-10T10:13:14;53.45;38.46;68.08;;
60503;Laerm;51448;51.660;5.824;2023-05-10T10:15:43;50.58;39.01;61.76;;
60503;Laerm;51448;51.660;5.824;2023-05-10T10:18:15;50.19;39.18;62.14;;
60503;Laerm;51448;51.660;5.824;2023-05-10T10:20:43;52.75;38.89;68.30;;
60503;Laerm;51448;51.660;5.824;2023-05-10T10:23:11;50.96;38.01;66.21;;
60503;Laerm;51448;51.660;5.824;2023-05-10T10:25:39;52.10;37.40;65.57;;
60503;Laerm;51448;51.660;5.824;2023-05-10T10:28:50;49.79;35.84;69.54;;
60503;Laerm;51448;51.660;5.824;2023-05-10T10:31:39;52.85;34.17;75.18;;
60503;Laerm;51448;51.660;5.824;2023-05-10T10:34:21;53.53;34.08;78.33;;
60503;Laerm;51448;51.660;5.824;2023-05-10T10:36:51;49.18;34.80;63.17;;
60503;Laerm;51448;51.660;5.824;2023-05-10T10:39:20;47.73;32.14;64.17;;
60503;Laerm;51448;51.660;5.824;2023-05-10T10:41:57;51.58;34.75;68.01;;
60503;Laerm;51448;51.660;5.824;2023-05-10T10:47:22;49.90;33.13;64.58;;
60503;Laerm;51448;51.660;5.824;2023-05-10T10:52:42;54.18;33.16;73.74;;
60503;Laerm;51448;51.660;5.824;2023-05-10T10:55:14;51.76;33.26;67.19;;
60503;Laerm;51448;51.660;5.824;2023-05-10T10:57:49;55.07;32.36;78.91;;
60503;Laerm;51448;51.660;5.824;2023-05-10T11:00:38;52.94;33.56;65.58;;
60503;Laerm;51448;51.660;5.824;2023-05-10T11:03:13;49.90;33.07;63.58;;
60503;Laerm;51448;51.660;5.824;2023-05-10T11:08:20;47.88;33.64;69.17;;
60503;Laerm;51448;51.660;5.824;2023-05-10T11:13:40;50.02;32.35;67.64;;
60503;Laerm;51448;51.660;5.824;2023-05-10T11:16:22;50.48;32.85;68.64;;
60503;Laerm;51448;51.660;5.824;2023-05-10T11:19:07;49.39;33.84;64.98;;
60503;Laerm;51448;51.660;5.824;2023-05-10T11:24:20;63.57;37.58;79.99;;
60503;Laerm;51448;51.660;5.824;2023-05-10T11:26:50;51.16;35.53;72.55;;
60503;Laerm;51448;51.660;5.824;2023-05-10T11:29:19;49.88;32.93;72.57;;
60503;Laerm;51448;51.660;5.824;2023-05-10T11:31:49;47.49;32.72;58.31;;
60503;Laerm;51448;51.660;5.824;2023-05-10T11:34:24;51.53;32.16;77.81;;
60503;Laerm;51448;51.660;5.824;2023-05-10T11:36:54;56.47;33.19;78.44;;
60503;Laerm;51448;51.660;5.824;2023-05-10T11:44:05;52.64;34.73;72.46;;
60503;Laerm;51448;51.660;5.824;2023-05-10T11:46:44;56.66;34.38;78.37;;
60503;Laerm;51448;51.660;5.824;2023-05-10T11:49:43;53.28;35.00;73.82;;
60503;Laerm;51448;51.660;5.824;2023-05-10T11:52:21;48.55;34.82;57.95;;
60503;Laerm;51448;51.660;5.824;2023-05-10T11:54:58;50.88;39.04;62.42;;
60503;Laerm;51448;51.660;5.824;2023-05-10T11:57:35;53.96;41.58;72.78;;
60503;Laerm;51448;51.660;5.824;2023-05-10T12:00:21;55.65;43.41;72.34;;
60503;Laerm;51448;51.660;5.824;2023-05-10T12:02:52;58.43;46.23;71.89;;
60503;Laerm;51448;51.660;5.824;2023-05-10T12:05:22;56.25;48.69;64.66;;
60503;Laerm;51448;51.660;5.824;2023-05-10T12:08:14;60.78;49.26;73.42;;
60503;Laerm;51448;51.660;5.824;2023-05-10T12:10:44;60.25;49.51;71.98;;
60503;Laerm;51448;51.660;5.824;2023-05-10T12:13:20;63.53;49.46;80.02;;
60503;Laerm;51448;51.660;5.824;2023-05-10T12:15:50;63.58;51.26;77.07;;
60503;Laerm;51448;51.660;5.824;2023-05-10T12:18:25;65.53;56.15;77.69;;
60503;Laerm;51448;51.660;5.824;2023-05-10T12:21:02;66.78;57.65;83.17;;
60503;Laerm;51448;51.660;5.824;2023-05-10T12:23:42;65.58;58.62;83.79;;
60503;Laerm;51448;51.660;5.824;2023-05-10T12:26:25;71.78;59.01;88.58;;
60503;Laerm;51448;51.660;5.824;2023-05-10T12:29:17;72.06;59.72;89.70;;
60503;Laerm;51448;51.660;5.824;2023-05-10T12:31:57;71.95;60.60;90.59;;
60503;Laerm;51448;51.660;5.824;2023-05-10T12:34:34;65.28;60.01;85.90;;
60503;Laerm;51448;51.660;5.824;2023-05-10T12:37:06;70.07;61.00;88.88;;
60503;Laerm;51448;51.660;5.824;2023-05-10T12:39:42;67.14;58.59;87.27;;
60503;Laerm;51448;51.660;5.824;2023-05-10T12:42:13;60.35;53.49;70.82;;
60503;Laerm;51448;51.660;5.824;2023-05-10T12:45:01;59.59;53.15;81.33;;
60503;Laerm;51448;51.660;5.824;2023-05-10T12:47:33;59.80;46.18;72.59;;
60503;Laerm;51448;51.660;5.824;2023-05-10T12:50:08;63.31;49.35;70.55;;
60503;Laerm;51448;51.660;5.824;2023-05-10T12:52:44;57.19;46.11;65.19;;
60503;Laerm;51448;51.660;5.824;2023-05-10T12:55:23;56.62;49.00;64.61;;
60503;Laerm;51448;51.660;5.824;2023-05-10T12:58:00;55.06;48.57;64.85;;
60503;Laerm;51448;51.660;5.824;2023-05-10T13:01:21;53.95;38.88;74.06;;
60503;Laerm;51448;51.660;5.824;2023-05-10T13:04:08;51.52;36.18;69.46;;
60503;Laerm;51448;51.660;5.824;2023-05-10T13:06:38;64.99;46.23;78.66;;
60503;Laerm;51448;51.660;5.824;2023-05-10T13:09:06;72.04;55.11;82.54;;
60503;Laerm;51448;51.660;5.824;2023-05-10T13:11:34;61.40;55.56;74.32;;
60503;Laerm;51448;51.660;5.824;2023-05-10T13:14:02;64.00;56.12;74.11;;
60503;Laerm;51448;51.660;5.824;2023-05-10T13:16:31;68.93;61.06;85.87;;
60503;Laerm;51448;51.660;5.824;2023-05-10T13:18:59;63.37;53.55;79.67;;
60503;Laerm;51448;51.660;5.824;2023-05-10T13:21:26;51.43;38.71;65.03;;
60503;Laerm;51448;51.660;5.824;2023-05-10T13:23:55;50.66;35.33;72.20;;
60503;Laerm;51448;51.660;5.824;2023-05-10T13:26:22;51.43;35.95;68.11;;
60503;Laerm;51448;51.660;5.824;2023-05-10T13:28:50;50.12;34.32;61.40;;
60503;Laerm;51448;51.660;5.824;2023-05-10T13:31:19;48.35;33.60;61.83;;
60503;Laerm;51448;51.660;5.824;2023-05-10T13:33:46;49.72;33.53;63.67;;
60503;Laerm;51448;51.660;5.824;2023-05-10T13:36:14;50.82;34.84;61.34;;
60503;Laerm;51448;51.660;5.824;2023-05-10T13:38:41;50.69;34.34;69.65;;
60503;Laerm;51448;51.660;5.824;2023-05-10T13:41:10;52.81;34.42;74.25;;
60503;Laerm;51448;51.660;5.824;2023-05-10T13:43:37;48.62;36.16;66.08;;
60503;Laerm;51448;51.660;5.824;2023-05-10T13:46:05;52.83;37.73;67.63;;
60503;Laerm;51448;51.660;5.824;2023-05-10T13:48:33;49.64;37.21;62.88;;
60503;Laerm;51448;51.660;5.824;2023-05-10T13:51:03;48.17;34.60;68.45;;
60503;Laerm;51448;51.660;5.824;2023-05-10T13:53:31;50.87;36.72;67.69;;
60503;Laerm;51448;51.660;5.824;2023-05-10T13:55:58;64.52;35.68;79.85;;
60503;Laerm;51448;51.660;5.824;2023-05-10T13:58:26;62.76;35.87;83.28;;
60503;Laerm;51448;51.660;5.824;2023-05-10T14:00:57;65.37;34.45;79.69;;
60503;Laerm;51448;51.660;5.824;2023-05-10T14:03:25;66.34;33.27;80.59;;
60503;Laerm;51448;51.660;5.824;2023-05-10T14:05:52;66.05;32.54;78.69;;
60503;Laerm;51448;51.660;5.824;2023-05-10T14:08:20;66.16;43.35;79.28;;
60503;Laerm;51448;51.660;5.824;2023-05-10T14:10:48;63.25;35.21;79.85;;
60503;Laerm;51448;51.660;5.824;2023-05-10T14:13:16;68.93;35.98;84.07;;
60503;Laerm;51448;51.660;5.824;2023-05-10T14:15:43;63.10;34.92;81.22;;
60503;Laerm;51448;51.660;5.824;2023-05-10T14:18:11;63.84;33.94;80.44;;
60503;Laerm;51448;51.660;5.824;2023-05-10T14:20:39;67.09;32.18;81.53;;
60503;Laerm;51448;51.660;5.824;2023-05-10T14:23:07;49.64;32.62;65.60;;
60503;Laerm;51448;51.660;5.824;2023-05-10T14:25:40;50.57;43.60;65.27;;
60503;Laerm;51448;51.660;5.824;2023-05-10T14:28:07;52.67;43.80;64.24;;
60503;Laerm;51448;51.660;5.824;2023-05-10T14:30:35;50.20;33.93;59.48;;
60503;Laerm;51448;51.660;5.824;2023-05-10T14:33:03;48.65;36.62;63.26;;
60503;Laerm;51448;51.660;5.824;2023-05-10T14:35:31;51.29;33.67;70.19;;